createdAt,value
2022-09-20T00:01:32.600Z,61.86
2022-09-20T00:04:05.528Z,61.42
2022-09-20T00:06:33.888Z,61.72
2022-09-20T00:09:03.243Z,61.57
2022-09-20T00:11:33.223Z,60.89
2022-09-20T00:14:02.215Z,60.24
2022-09-20T00:16:35.627Z,60.10
2022-09-20T00:19:05.174Z,60.51
2022-09-20T00:21:36.527Z,60.14
2022-09-20T00:24:04.509Z,58.80
2022-09-20T00:26:31.946Z,58.77
2022-09-20T00:29:00.324Z,59.19
2022-09-20T00:31:27.997Z,59.58
2022-09-20T00:34:15.580Z,60.19
2022-09-20T00:36:44.286Z,59.40
2022-09-20T00:39:13.517Z,60.08
2022-09-20T00:41:40.695Z,59.12
2022-09-20T00:44:50.067Z,59.66
2022-09-20T00:47:28.297Z,59.70
2022-09-20T00:50:35.978Z,59.48
2022-09-20T00:53:14.412Z,60.14
2022-09-20T00:55:47.491Z,59.23
2022-09-20T00:58:15.521Z,59.33
2022-09-20T01:00:45.371Z,58.91
2022-09-20T01:03:16.160Z,60.44
2022-09-20T01:05:45.363Z,60.76
2022-09-20T01:08:13.205Z,62.01
2022-09-20T01:10:40.493Z,61.37
2022-09-20T01:13:08.587Z,62.10
2022-09-20T01:15:38.914Z,60.75
2022-09-20T01:18:08.612Z,61.73
2022-09-20T01:20:41.021Z,61.27
2022-09-20T01:23:15.955Z,60.77
2022-09-20T01:25:58.810Z,61.63
2022-09-20T01:28:28.814Z,61.80
2022-09-20T01:31:04.714Z,62.53
2022-09-20T01:33:34.860Z,63.08
2022-09-20T01:36:06.356Z,62.41
2022-09-20T01:38:40.112Z,60.47
2022-09-20T01:41:27.191Z,62.07
2022-09-20T01:44:09.629Z,61.30
2022-09-20T01:46:38.207Z,61.93
2022-09-20T01:49:33.770Z,63.22
2022-09-20T01:52:47.688Z,62.79
2022-09-20T01:56:03.218Z,62.38
2022-09-20T01:58:46.967Z,62.05
2022-09-20T02:01:39.043Z,60.68
2022-09-20T02:04:37.860Z,62.10
2022-09-20T02:07:23.447Z,61.39
2022-09-20T02:10:11.241Z,61.63
2022-09-20T02:12:56.162Z,60.15
2022-09-20T02:15:41.511Z,60.17
2022-09-20T02:18:31.831Z,61.30
2022-09-20T02:21:24.183Z,61.34
2022-09-20T02:24:19.706Z,61.97
2022-09-20T02:27:16.785Z,61.54
2022-09-20T02:30:21.995Z,60.58
2022-09-20T02:33:26.887Z,61.07
2022-09-20T02:36:27.334Z,61.68
2022-09-20T02:39:03.199Z,63.37
2022-09-20T02:41:33.906Z,62.47
2022-09-20T02:44:22.552Z,63.20
2022-09-20T02:46:50.740Z,63.08
2022-09-20T02:49:41.612Z,63.50
2022-09-20T02:52:56.803Z,64.03
2022-09-20T02:55:29.901Z,64.66
2022-09-20T02:58:35.590Z,64.12
2022-09-20T03:01:24.410Z,63.53
2022-09-20T03:04:18.300Z,64.39
2022-09-20T03:06:53.681Z,65.22
2022-09-20T03:09:39.959Z,64.06
2022-09-20T03:12:33.606Z,64.23
2022-09-20T03:15:22.856Z,63.23
2022-09-20T03:18:08.497Z,63.33
2022-09-20T03:20:52.427Z,64.35
2022-09-20T03:24:10.499Z,64.66
2022-09-20T03:26:55.370Z,65.08
2022-09-20T03:29:48.521Z,65.02
2022-09-20T03:32:31.378Z,64.68
2022-09-20T03:35:01.885Z,64.64
2022-09-20T03:37:44.776Z,66.01
2022-09-20T03:40:19.700Z,66.60
2022-09-20T03:42:52.245Z,66.67
2022-09-20T03:45:31.871Z,65.72
2022-09-20T03:48:14.819Z,65.26
2022-09-20T03:51:00.779Z,65.93
2022-09-20T03:54:04.377Z,67.12
2022-09-20T03:56:59.681Z,66.92
2022-09-20T03:59:56.386Z,67.93
2022-09-20T04:02:31.459Z,67.50
2022-09-20T04:05:04.007Z,67.72
2022-09-20T04:08:07.412Z,68.19
2022-09-20T04:10:47.024Z,68.52
2022-09-20T04:13:41.074Z,68.30
2022-09-20T04:16:32.461Z,68.41
2022-09-20T04:19:18.355Z,68.47
2022-09-20T04:21:59.427Z,69.44
2022-09-20T04:24:57.282Z,69.45
2022-09-20T04:27:43.130Z,69.51
2022-09-20T04:30:30.408Z,69.59
2022-09-20T04:33:06.673Z,69.91
2022-09-20T04:36:02.513Z,69.62
2022-09-20T04:38:30.665Z,69.71
2022-09-20T04:40:58.282Z,68.92
2022-09-20T04:43:51.356Z,69.54
2022-09-20T04:46:44.281Z,69.91
2022-09-20T04:49:30.241Z,69.88
2022-09-20T04:52:07.007Z,70.81
2022-09-20T04:54:56.155Z,70.85
2022-09-20T04:57:23.821Z,70.79
2022-09-20T05:00:03.321Z,69.11
2022-09-20T05:02:47.209Z,68.36
2022-09-20T05:05:17.503Z,68.34
2022-09-20T05:08:24.043Z,68.18
2022-09-20T05:11:04.481Z,68.16
2022-09-20T05:13:38.831Z,68.23
2022-09-20T05:16:26.684Z,68.18
2022-09-20T05:19:25.429Z,68.37
2022-09-20T05:21:59.918Z,67.86
2022-09-20T05:24:52.981Z,67.60
2022-09-20T05:27:29.609Z,67.61
2022-09-20T05:30:04.926Z,67.25
2022-09-20T05:32:53.005Z,66.82
2022-09-20T05:36:02.846Z,66.57
2022-09-20T05:38:34.737Z,66.08
2022-09-20T05:41:32.663Z,65.30
2022-09-20T05:44:18.542Z,65.73
2022-09-20T05:47:18.952Z,64.65
2022-09-20T05:50:20.250Z,65.01
2022-09-20T05:53:07.075Z,65.10
2022-09-20T05:56:22.736Z,64.52
2022-09-20T05:59:27.723Z,64.86
2022-09-20T06:02:00.528Z,63.16
2022-09-20T06:04:58.214Z,63.35
2022-09-20T06:07:49.856Z,63.08
2022-09-20T06:10:42.970Z,61.82
2022-09-20T06:13:41.544Z,61.66
2022-09-20T06:16:18.740Z,63.26
2022-09-20T06:18:57.745Z,61.53
2022-09-20T06:21:36.296Z,61.40
2022-09-20T06:24:12.902Z,61.64
2022-09-20T06:26:44.758Z,60.64
2022-09-20T06:29:14.450Z,59.92
2022-09-20T06:31:42.191Z,61.05
2022-09-20T06:34:13.488Z,61.04
2022-09-20T06:37:09.585Z,60.14
2022-09-20T06:40:01.854Z,60.23
2022-09-20T06:42:30.082Z,59.27
2022-09-20T06:44:58.313Z,58.10
2022-09-20T06:47:27.401Z,58.63
2022-09-20T06:49:55.706Z,59.16
2022-09-20T06:52:23.480Z,59.72
2022-09-20T06:54:54.894Z,58.54
2022-09-20T06:57:38.036Z,57.68
2022-09-20T07:00:07.218Z,55.85
2022-09-20T07:02:34.975Z,56.81
2022-09-20T07:05:02.377Z,57.81
2022-09-20T07:07:29.789Z,57.19
2022-09-20T07:09:58.684Z,55.92
2022-09-20T07:12:26.200Z,54.77
2022-09-20T07:14:53.595Z,54.90
2022-09-20T07:17:22.343Z,55.04
2022-09-20T07:19:49.657Z,52.26
2022-09-20T07:22:17.268Z,52.46
2022-09-20T07:24:45.119Z,54.55
2022-09-20T07:27:12.987Z,51.98
2022-09-20T07:29:41.344Z,50.53
2022-09-20T07:32:09.315Z,51.45
2022-09-20T07:34:36.678Z,50.37
2022-09-20T07:37:04.105Z,50.63
2022-09-20T07:39:31.813Z,51.24
2022-09-20T07:41:59.318Z,53.36
2022-09-20T07:44:28.023Z,53.17
2022-09-20T07:46:58.276Z,52.65
2022-09-20T07:49:27.860Z,53.69
2022-09-20T07:51:56.026Z,53.35
2022-09-20T07:54:23.410Z,53.50
2022-09-20T07:56:50.829Z,51.56
2022-09-20T07:59:18.594Z,50.61
2022-09-20T08:01:46.179Z,47.82
2022-09-20T08:04:14.812Z,50.13
2022-09-20T08:06:44.632Z,49.06
2022-09-20T08:09:13.263Z,49.44
2022-09-20T08:11:42.980Z,48.97
2022-09-20T08:14:17.223Z,48.68
2022-09-20T08:16:47.549Z,48.87
2022-09-20T08:19:23.299Z,47.40
2022-09-20T08:21:53.553Z,47.91
2022-09-20T08:24:21.416Z,45.34
2022-09-20T08:26:48.848Z,45.51
2022-09-20T08:29:16.935Z,46.97
2022-09-20T08:31:44.501Z,45.12
2022-09-20T08:34:14.114Z,44.93
2022-09-20T08:36:47.044Z,44.84
2022-09-20T08:42:20.669Z,45.00
2022-09-20T08:45:35.586Z,46.08
2022-09-20T08:48:07.589Z,43.78
2022-09-20T08:50:37.547Z,42.31
2022-09-20T08:53:05.694Z,42.82
2022-09-20T08:55:36.958Z,43.87
2022-09-20T08:58:08.735Z,44.92
2022-09-20T09:00:38.336Z,43.03
2022-09-20T09:03:18.023Z,44.67
2022-09-20T09:05:50.123Z,44.91
2022-09-20T09:08:21.528Z,44.32
2022-09-20T09:10:54.334Z,42.59
2022-09-20T09:13:27.917Z,44.33
2022-09-20T09:16:03.420Z,43.44
2022-09-20T09:18:35.527Z,44.45
2022-09-20T09:21:05.126Z,44.74
2022-09-20T09:23:41.564Z,43.17
2022-09-20T09:26:18.868Z,42.78
2022-09-20T09:28:46.622Z,42.41
2022-09-20T09:31:28.360Z,42.07
2022-09-20T09:33:56.166Z,40.84
2022-09-20T09:36:25.882Z,42.90
2022-09-20T09:39:41.828Z,41.15
2022-09-20T09:42:26.000Z,41.52
2022-09-20T09:44:53.494Z,40.30
2022-09-20T09:47:29.157Z,40.84
2022-09-20T09:50:01.627Z,39.83
2022-09-20T09:52:33.552Z,40.08
2022-09-20T09:55:05.452Z,40.46
2022-09-20T09:57:59.115Z,39.78
2022-09-20T10:00:27.522Z,42.17
2022-09-20T10:03:21.290Z,40.16
2022-09-20T10:05:48.818Z,40.83
2022-09-20T10:08:19.369Z,41.68
2022-09-20T10:11:12.380Z,40.27
2022-09-20T10:14:06.556Z,39.58
2022-09-20T10:17:02.496Z,39.05
2022-09-20T10:19:36.045Z,39.01
2022-09-20T10:23:14.721Z,39.30
2022-09-20T10:25:55.261Z,38.39
2022-09-20T10:28:50.146Z,38.88
2022-09-20T10:31:44.339Z,39.21
2022-09-20T10:34:20.986Z,40.24
2022-09-20T10:36:59.711Z,39.80
2022-09-20T10:39:39.692Z,37.14
2022-09-20T10:42:48.502Z,35.99
2022-09-20T10:48:48.079Z,38.30
2022-09-20T10:51:25.343Z,37.99
2022-09-20T10:53:53.003Z,37.60
2022-09-20T10:56:37.158Z,38.75
2022-09-20T10:59:25.199Z,37.83
2022-09-20T11:02:36.715Z,36.82
2022-09-20T11:05:40.749Z,37.62
2022-09-20T11:08:13.486Z,36.25
2022-09-20T11:10:51.803Z,36.15
2022-09-20T11:13:38.563Z,35.66
2022-09-20T11:16:23.458Z,35.82
2022-09-20T11:19:27.146Z,35.98
2022-09-20T11:22:06.285Z,34.93
2022-09-20T11:24:41.159Z,36.14
2022-09-20T11:27:13.749Z,37.62
2022-09-20T11:29:47.956Z,35.11
2022-09-20T11:32:24.715Z,34.14
2022-09-20T11:35:00.298Z,35.91
2022-09-20T11:37:33.583Z,33.11
2022-09-20T11:40:18.533Z,34.08
2022-09-20T11:42:47.150Z,34.58
2022-09-20T11:45:14.655Z,37.37
2022-09-20T11:47:54.883Z,34.78
2022-09-20T11:50:57.327Z,34.71
2022-09-20T11:53:49.503Z,36.50
2022-09-20T11:56:32.363Z,34.93
2022-09-20T11:59:02.994Z,34.27
2022-09-20T12:01:43.063Z,35.43
2022-09-20T12:04:33.967Z,35.10
2022-09-20T12:07:19.077Z,35.61
2022-09-20T12:09:54.358Z,33.62
2022-09-20T12:12:41.872Z,34.54
2022-09-20T12:15:21.800Z,34.62
2022-09-20T12:17:49.844Z,34.97
2022-09-20T12:20:33.117Z,34.51
2022-09-20T12:23:41.405Z,35.43
2022-09-20T12:26:18.404Z,35.49
2022-09-20T12:28:51.119Z,34.89
2022-09-20T12:31:19.095Z,33.68
2022-09-20T12:34:25.311Z,33.39
2022-09-20T12:36:56.209Z,34.39
2022-09-20T12:39:36.745Z,32.46
2022-09-20T12:42:24.655Z,34.81
2022-09-20T12:44:52.041Z,33.97
2022-09-20T12:47:24.458Z,33.32
2022-09-20T12:50:12.906Z,33.84
2022-09-20T12:52:58.843Z,32.73
2022-09-20T12:55:30.142Z,32.71
2022-09-20T12:58:02.946Z,33.95
2022-09-20T13:00:57.545Z,32.29
2022-09-20T13:03:35.379Z,33.46
2022-09-20T13:06:09.096Z,32.54
2022-09-20T13:08:42.951Z,32.80
2022-09-20T13:11:19.519Z,32.48
2022-09-20T13:13:57.865Z,31.39
2022-09-20T13:16:31.993Z,30.53
2022-09-20T13:19:10.668Z,31.92
2022-09-20T13:21:42.509Z,31.13
2022-09-20T13:24:18.269Z,32.40
2022-09-20T13:26:48.164Z,32.73
2022-09-20T13:29:25.192Z,31.39
2022-09-20T13:31:52.669Z,31.75
2022-09-20T13:34:23.750Z,33.33
2022-09-20T13:36:58.521Z,33.54
2022-09-20T13:39:44.348Z,31.95
2022-09-20T13:42:19.944Z,31.94
2022-09-20T13:44:48.709Z,32.46
2022-09-20T13:47:26.377Z,32.12
2022-09-20T13:50:00.977Z,32.72
2022-09-20T13:52:31.176Z,32.10
2022-09-20T13:54:58.938Z,30.98
2022-09-20T13:57:30.731Z,31.22
2022-09-20T13:59:59.109Z,32.84
2022-09-20T14:02:32.133Z,30.94
2022-09-20T14:05:04.091Z,30.92
2022-09-20T14:07:33.014Z,31.02
2022-09-20T14:10:01.005Z,30.01
2022-09-20T14:12:28.698Z,29.37
2022-09-20T14:14:56.596Z,29.47
2022-09-20T14:17:25.810Z,29.57
2022-09-20T14:19:55.545Z,29.21
2022-09-20T14:22:26.991Z,29.02
2022-09-20T14:25:20.760Z,26.89
2022-09-20T14:27:48.314Z,27.12
2022-09-20T14:30:36.359Z,25.86
2022-09-20T14:33:06.509Z,25.50
2022-09-20T14:35:34.524Z,24.71
2022-09-20T14:38:10.558Z,24.38
2022-09-20T14:40:46.510Z,23.27
2022-09-20T14:43:22.726Z,22.06
2022-09-20T14:45:56.931Z,22.33
2022-09-20T14:48:45.734Z,21.39
2022-09-20T14:51:16.561Z,22.46
2022-09-20T14:53:48.746Z,22.46
2022-09-20T14:56:25.643Z,22.28
2022-09-20T14:59:06.706Z,21.47
2022-09-20T15:01:37.795Z,21.22
2022-09-20T15:04:10.097Z,22.30
2022-09-20T15:06:40.282Z,23.13
2022-09-20T15:09:12.464Z,22.80
2022-09-20T15:11:41.056Z,22.70
2022-09-20T15:14:08.551Z,21.34
2022-09-20T15:16:36.166Z,22.12
2022-09-20T15:19:05.979Z,22.81
2022-09-20T15:21:33.474Z,22.81
2022-09-20T15:24:01.017Z,22.77
2022-09-20T15:26:29.500Z,22.95
2022-09-20T15:28:56.850Z,22.83
2022-09-20T15:31:24.391Z,24.67
2022-09-20T15:33:52.803Z,24.95
2022-09-20T15:36:20.323Z,25.83
2022-09-20T15:38:47.692Z,25.40
2022-09-20T15:41:15.742Z,26.59
2022-09-20T15:43:43.507Z,28.91
2022-09-20T15:46:22.830Z,31.14
2022-09-20T15:48:50.793Z,33.47
2022-09-20T15:51:18.277Z,34.26
2022-09-20T15:53:49.501Z,35.47
2022-09-20T15:56:22.433Z,37.10
2022-09-20T15:59:01.116Z,37.70
2022-09-20T16:01:29.971Z,38.48
2022-09-20T16:03:57.695Z,37.38
2022-09-20T16:06:26.122Z,38.35
2022-09-20T16:08:53.492Z,38.64
2022-09-20T16:11:22.891Z,39.31
2022-09-20T16:14:00.759Z,40.85
2022-09-20T16:16:30.544Z,39.54
2022-09-20T16:19:16.510Z,39.54
2022-09-20T16:21:47.310Z,40.62
2022-09-20T16:24:15.372Z,41.44
2022-09-20T16:26:43.747Z,41.75
2022-09-20T16:29:14.907Z,41.83
2022-09-20T16:31:47.537Z,42.19
2022-09-20T16:34:21.086Z,42.50
2022-09-20T16:36:51.078Z,42.59
2022-09-20T16:39:19.975Z,43.96
2022-09-20T16:41:49.430Z,44.73
2022-09-20T16:44:16.877Z,45.38
2022-09-20T16:46:45.655Z,45.99
2022-09-20T16:49:13.725Z,46.10
2022-09-20T16:51:43.102Z,46.28
2022-09-20T16:54:13.716Z,45.74
2022-09-20T16:56:46.786Z,45.81
2022-09-20T16:59:16.026Z,46.56
2022-09-20T17:01:44.821Z,46.06
2022-09-20T17:04:17.689Z,47.27
2022-09-20T17:06:46.302Z,47.82
2022-09-20T17:09:14.571Z,47.41
2022-09-20T17:11:47.496Z,48.10
2022-09-20T17:14:17.430Z,47.13
2022-09-20T17:16:49.333Z,48.48
2022-09-20T17:19:19.718Z,49.27
2022-09-20T17:21:53.086Z,50.43
2022-09-20T17:24:22.779Z,49.91
2022-09-20T17:26:51.079Z,49.93
2022-09-20T17:29:19.966Z,49.80
2022-09-20T17:31:56.811Z,50.57
2022-09-20T17:34:26.560Z,50.17
2022-09-20T17:36:55.321Z,50.49
2022-09-20T17:39:23.365Z,51.52
2022-09-20T17:41:51.553Z,52.08
2022-09-20T17:44:19.575Z,51.42
2022-09-20T17:46:50.112Z,51.18
2022-09-20T17:49:19.927Z,51.78
2022-09-20T17:51:56.782Z,52.76
2022-09-20T17:54:24.818Z,54.09
2022-09-20T17:56:56.398Z,54.51
2022-09-20T17:59:24.832Z,54.50
2022-09-20T18:01:54.615Z,54.88
2022-09-20T18:04:24.670Z,55.23
2022-09-20T18:06:54.619Z,56.66
2022-09-20T18:09:25.057Z,56.10
2022-09-20T18:11:54.098Z,56.96
2022-09-20T18:14:32.780Z,57.45
2022-09-20T18:17:01.559Z,57.28
2022-09-20T18:19:35.895Z,57.49
2022-09-20T18:22:04.265Z,58.24
2022-09-20T18:24:32.418Z,58.34
2022-09-20T18:27:01.106Z,58.20
2022-09-20T18:29:29.484Z,58.16
2022-09-20T18:31:59.838Z,58.31
2022-09-20T18:34:33.680Z,57.86
2022-09-20T18:37:01.786Z,58.98
2022-09-20T18:39:33.798Z,59.69
2022-09-20T18:42:02.751Z,59.09
2022-09-20T18:44:34.400Z,58.54
2022-09-20T18:47:04.119Z,58.54
2022-09-20T18:49:32.283Z,58.74
2022-09-20T18:51:59.635Z,60.53
2022-09-20T18:54:32.108Z,62.71
2022-09-20T18:57:00.208Z,63.54
2022-09-20T18:59:28.338Z,62.78
2022-09-20T19:02:35.878Z,62.74
2022-09-20T19:05:28.864Z,63.37
2022-09-20T19:08:10.428Z,62.34
2022-09-20T19:10:52.264Z,62.60
2022-09-20T19:13:43.318Z,62.31
2022-09-20T19:16:13.945Z,62.59
2022-09-20T19:19:07.558Z,63.42
2022-09-20T19:21:47.499Z,62.51
2022-09-20T19:24:28.322Z,62.90
2022-09-20T19:26:56.171Z,62.66
2022-09-20T19:29:26.919Z,63.56
2022-09-20T19:31:57.129Z,63.64
2022-09-20T19:34:32.594Z,64.94
2022-09-20T19:37:07.301Z,63.23
2022-09-20T19:40:04.478Z,63.45
2022-09-20T19:42:44.067Z,63.20
2022-09-20T19:45:23.809Z,64.72
2022-09-20T19:48:25.445Z,63.95
2022-09-20T19:50:53.735Z,63.59
2022-09-20T19:53:26.833Z,63.51
2022-09-20T19:56:00.255Z,63.30
2022-09-20T19:58:28.314Z,64.27
2022-09-20T20:00:58.370Z,63.98
2022-09-20T20:03:27.640Z,64.32
2022-09-20T20:06:07.888Z,64.63
2022-09-20T20:08:55.097Z,63.81
2022-09-20T20:11:42.065Z,65.56
2022-09-20T20:14:21.382Z,66.07
2022-09-20T20:16:57.744Z,67.29
2022-09-20T20:19:54.476Z,65.70
2022-09-20T20:22:34.192Z,65.00
2022-09-20T20:25:02.091Z,64.60
2022-09-20T20:27:31.465Z,66.35
2022-09-20T20:29:59.010Z,66.63
2022-09-20T20:32:27.078Z,66.57
2022-09-20T20:34:54.407Z,66.66
2022-09-20T20:37:24.125Z,66.64
2022-09-20T20:39:52.294Z,65.69
2022-09-20T20:42:19.886Z,65.85
2022-09-20T20:44:47.686Z,67.13
2022-09-20T20:47:15.419Z,67.29
2022-09-20T20:49:44.017Z,66.91
2022-09-20T20:52:11.469Z,66.14
2022-09-20T20:54:39.188Z,67.56
2022-09-20T20:57:06.556Z,67.63
2022-09-20T20:59:33.880Z,66.74
2022-09-20T21:02:07.116Z,68.06
2022-09-20T21:04:35.469Z,66.80
2022-09-20T21:07:04.351Z,66.48
2022-09-20T21:09:32.259Z,66.62
2022-09-20T21:11:59.680Z,67.22
2022-09-20T21:14:27.411Z,67.98
2022-09-20T21:16:54.725Z,66.65
2022-09-20T21:19:23.072Z,66.91
2022-09-20T21:21:50.697Z,68.60
2022-09-20T21:24:17.886Z,67.51
2022-09-20T21:26:46.684Z,66.91
2022-09-20T21:29:15.808Z,67.42
2022-09-20T21:31:46.863Z,68.23
2022-09-20T21:34:15.927Z,68.37
2022-09-20T21:36:44.750Z,67.88
2022-09-20T21:39:12.578Z,68.23
2022-09-20T21:41:40.599Z,68.88
2022-09-20T21:44:10.456Z,69.11
2022-09-20T21:46:42.639Z,69.20
2022-09-20T21:49:11.866Z,68.99
2022-09-20T21:51:42.252Z,68.97
2022-09-20T21:54:11.079Z,68.82
2022-09-20T21:56:40.508Z,68.02
2022-09-20T21:59:08.059Z,68.20
2022-09-20T22:01:38.245Z,67.70
2022-09-20T22:04:08.501Z,67.97
2022-09-20T22:06:38.585Z,67.80
2022-09-20T22:09:17.358Z,66.53
2022-09-20T22:11:46.943Z,67.40
2022-09-20T22:14:18.386Z,67.52
2022-09-20T22:16:47.391Z,66.94
2022-09-20T22:19:17.458Z,67.06
2022-09-20T22:21:47.110Z,67.78
2022-09-20T22:24:16.166Z,67.83
2022-09-20T22:26:46.150Z,68.18
2022-09-20T22:29:14.081Z,68.18
2022-09-20T22:31:45.752Z,68.11
2022-09-20T22:34:20.227Z,66.87
2022-09-20T22:36:48.572Z,67.14
2022-09-20T22:39:17.233Z,68.23
2022-09-20T22:41:45.237Z,68.54
2022-09-20T22:44:12.810Z,67.34
2022-09-20T22:46:40.644Z,68.18
2022-09-20T22:49:09.509Z,68.46
2022-09-20T22:51:37.645Z,68.44
2022-09-20T22:54:07.325Z,68.29
2022-09-20T22:56:34.789Z,69.02
2022-09-20T22:59:11.043Z,69.10
2022-09-20T23:01:43.979Z,68.05
2022-09-20T23:04:19.061Z,69.48
2022-09-20T23:06:48.108Z,70.02
2022-09-20T23:09:18.113Z,71.02
2022-09-20T23:11:45.762Z,71.53
2022-09-20T23:14:15.574Z,71.28
2022-09-20T23:16:43.697Z,72.18
2022-09-20T23:19:12.283Z,73.28
2022-09-20T23:21:41.199Z,73.99
2022-09-20T23:24:11.048Z,73.14
2022-09-20T23:26:39.759Z,72.55
2022-09-20T23:29:11.033Z,71.79
2022-09-20T23:31:40.255Z,72.34
2022-09-20T23:34:08.833Z,73.12
2022-09-20T23:36:39.609Z,72.53
2022-09-20T23:39:08.458Z,72.05
2022-09-20T23:41:36.866Z,72.81
2022-09-20T23:44:10.031Z,71.88
2022-09-20T23:46:38.561Z,71.80
2022-09-20T23:49:07.002Z,71.17
2022-09-20T23:51:35.666Z,72.70
2022-09-20T23:54:03.993Z,72.67
2022-09-20T23:56:31.311Z,72.74
2022-09-20T23:58:58.547Z,74.26
